sensor_id;sensor_type;location;lat;lon;timestamp;temperature;humidity
702;DHT22;334;48.808;9.222;2023-06-14T00:00:19;20.80;1.00
702;DHT22;334;48.808;9.222;2023-06-14T00:01:22;20.80;1.00
702;DHT22;334;48.808;9.222;2023-06-14T00:02:24;20.80;1.00
702;DHT22;334;48.808;9.222;2023-06-14T00:03:26;20.80;1.00
702;DHT22;334;48.808;9.222;2023-06-14T00:04:28;20.80;1.00
702;DHT22;334;48.808;9.222;2023-06-14T00:05:30;20.80;1.00
702;DHT22;334;48.808;9.222;2023-06-14T00:06:35;20.80;1.00
702;DHT22;334;48.808;9.222;2023-06-14T00:07:39;20.80;1.00
702;DHT22;334;48.808;9.222;2023-06-14T00:08:44;20.80;1.00
702;DHT22;334;48.808;9.222;2023-06-14T00:09:46;20.80;1.00
702;DHT22;334;48.808;9.222;2023-06-14T00:10:48;20.70;1.00
702;DHT22;334;48.808;9.222;2023-06-14T00:11:50;20.80;1.00
702;DHT22;334;48.808;9.222;2023-06-14T00:12:52;20.70;1.00
702;DHT22;334;48.808;9.222;2023-06-14T00:13:54;20.70;1.00
702;DHT22;334;48.808;9.222;2023-06-14T00:14:56;20.70;1.00
702;DHT22;334;48.808;9.222;2023-06-14T00:15:58;20.70;1.00
702;DHT22;334;48.808;9.222;2023-06-14T00:17:36;20.60;1.00
702;DHT22;334;48.808;9.222;2023-06-14T00:18:41;20.60;1.00
702;DHT22;334;48.808;9.222;2023-06-14T00:19:43;20.60;1.00
702;DHT22;334;48.808;9.222;2023-06-14T00:20:45;20.50;1.00
702;DHT22;334;48.808;9.222;2023-06-14T00:21:48;20.50;1.00
702;DHT22;334;48.808;9.222;2023-06-14T00:22:50;20.40;1.00
702;DHT22;334;48.808;9.222;2023-06-14T00:23:53;20.40;1.00
702;DHT22;334;48.808;9.222;2023-06-14T00:24:56;20.30;1.00
702;DHT22;334;48.808;9.222;2023-06-14T00:26:02;20.30;1.00
702;DHT22;334;48.808;9.222;2023-06-14T00:27:05;20.30;1.00
702;DHT22;334;48.808;9.222;2023-06-14T00:28:07;20.30;1.00
702;DHT22;334;48.808;9.222;2023-06-14T00:29:08;20.20;1.00
702;DHT22;334;48.808;9.222;2023-06-14T00:30:11;20.20;1.00
702;DHT22;334;48.808;9.222;2023-06-14T00:31:13;20.10;1.00
702;DHT22;334;48.808;9.222;2023-06-14T00:32:15;20.10;1.00
702;DHT22;334;48.808;9.222;2023-06-14T00:33:17;20.10;1.00
702;DHT22;334;48.808;9.222;2023-06-14T00:34:19;20.10;1.00
702;DHT22;334;48.808;9.222;2023-06-14T00:35:21;20.10;1.00
702;DHT22;334;48.808;9.222;2023-06-14T00:36:23;20.00;1.00
702;DHT22;334;48.808;9.222;2023-06-14T00:37:25;20.00;1.00
702;DHT22;334;48.808;9.222;2023-06-14T00:38:28;19.90;1.00
702;DHT22;334;48.808;9.222;2023-06-14T00:39:30;19.90;1.00
702;DHT22;334;48.808;9.222;2023-06-14T00:40:32;19.90;1.00
702;DHT22;334;48.808;9.222;2023-06-14T00:41:36;19.90;1.00
702;DHT22;334;48.808;9.222;2023-06-14T00:42:38;19.90;1.00
702;DHT22;334;48.808;9.222;2023-06-14T00:43:40;19.90;1.00
702;DHT22;334;48.808;9.222;2023-06-14T00:44:42;19.90;1.00
702;DHT22;334;48.808;9.222;2023-06-14T00:45:45;19.90;1.00
702;DHT22;334;48.808;9.222;2023-06-14T00:46:48;19.90;1.00
702;DHT22;334;48.808;9.222;2023-06-14T00:47:51;19.90;1.00
702;DHT22;334;48.808;9.222;2023-06-14T00:48:58;19.90;1.00
702;DHT22;334;48.808;9.222;2023-06-14T00:50:02;19.90;1.00
702;DHT22;334;48.808;9.222;2023-06-14T00:51:04;19.90;1.00
702;DHT22;334;48.808;9.222;2023-06-14T00:52:06;19.90;1.00
702;DHT22;334;48.808;9.222;2023-06-14T00:53:09;19.90;1.00
702;DHT22;334;48.808;9.222;2023-06-14T00:54:12;19.90;1.00
702;DHT22;334;48.808;9.222;2023-06-14T00:55:16;20.00;1.00
702;DHT22;334;48.808;9.222;2023-06-14T00:56:18;20.00;1.00
702;DHT22;334;48.808;9.222;2023-06-14T00:57:22;20.00;1.00
702;DHT22;334;48.808;9.222;2023-06-14T00:58:26;20.00;1.00
702;DHT22;334;48.808;9.222;2023-06-14T00:59:30;20.00;1.00
702;DHT22;334;48.808;9.222;2023-06-14T01:00:32;20.00;1.00
702;DHT22;334;48.808;9.222;2023-06-14T01:01:34;20.00;1.00
702;DHT22;334;48.808;9.222;2023-06-14T01:02:37;20.00;1.00
702;DHT22;334;48.808;9.222;2023-06-14T01:03:39;20.00;1.00
702;DHT22;334;48.808;9.222;2023-06-14T01:04:44;20.00;1.00
702;DHT22;334;48.808;9.222;2023-06-14T01:06:12;20.00;1.00
702;DHT22;334;48.808;9.222;2023-06-14T01:11:44;19.70;1.00
702;DHT22;334;48.808;9.222;2023-06-14T01:13:50;19.70;1.00
702;DHT22;334;48.808;9.222;2023-06-14T01:14:33;19.60;1.00
702;DHT22;334;48.808;9.222;2023-06-14T01:15:36;19.50;1.00
702;DHT22;334;48.808;9.222;2023-06-14T01:16:39;19.50;1.00
702;DHT22;334;48.808;9.222;2023-06-14T01:17:44;19.40;1.00
702;DHT22;334;48.808;9.222;2023-06-14T01:18:47;19.40;1.00
702;DHT22;334;48.808;9.222;2023-06-14T01:19:51;19.40;1.00
702;DHT22;334;48.808;9.222;2023-06-14T01:20:59;19.40;1.00
702;DHT22;334;48.808;9.222;2023-06-14T01:22:01;19.40;1.00
702;DHT22;334;48.808;9.222;2023-06-14T01:23:04;19.40;1.00
702;DHT22;334;48.808;9.222;2023-06-14T01:24:05;19.40;1.00
702;DHT22;334;48.808;9.222;2023-06-14T01:25:07;19.30;1.00
702;DHT22;334;48.808;9.222;2023-06-14T01:26:09;19.30;1.00
702;DHT22;334;48.808;9.222;2023-06-14T01:27:11;19.20;1.00
702;DHT22;334;48.808;9.222;2023-06-14T01:28:18;19.20;1.00
702;DHT22;334;48.808;9.222;2023-06-14T01:29:20;19.20;1.00
702;DHT22;334;48.808;9.222;2023-06-14T01:30:23;19.20;1.00
702;DHT22;334;48.808;9.222;2023-06-14T01:31:27;19.30;1.00
702;DHT22;334;48.808;9.222;2023-06-14T01:32:31;19.30;1.00
702;DHT22;334;48.808;9.222;2023-06-14T01:33:33;19.30;1.00
702;DHT22;334;48.808;9.222;2023-06-14T01:34:37;19.30;1.00
702;DHT22;334;48.808;9.222;2023-06-14T01:35:48;19.30;1.00
702;DHT22;334;48.808;9.222;2023-06-14T01:36:53;19.40;1.00
702;DHT22;334;48.808;9.222;2023-06-14T01:38:00;19.30;1.00
702;DHT22;334;48.808;9.222;2023-06-14T01:39:03;19.30;1.00
702;DHT22;334;48.808;9.222;2023-06-14T01:40:07;19.30;1.00
702;DHT22;334;48.808;9.222;2023-06-14T01:41:11;19.30;1.00
702;DHT22;334;48.808;9.222;2023-06-14T01:42:16;19.30;1.00
702;DHT22;334;48.808;9.222;2023-06-14T01:43:22;19.30;1.00
702;DHT22;334;48.808;9.222;2023-06-14T01:44:25;19.30;1.00
702;DHT22;334;48.808;9.222;2023-06-14T01:45:31;19.30;1.00
702;DHT22;334;48.808;9.222;2023-06-14T01:46:33;19.30;1.00
702;DHT22;334;48.808;9.222;2023-06-14T01:47:37;19.30;1.00
702;DHT22;334;48.808;9.222;2023-06-14T01:48:41;19.30;1.00
702;DHT22;334;48.808;9.222;2023-06-14T01:49:46;19.30;1.00
702;DHT22;334;48.808;9.222;2023-06-14T01:50:50;19.30;1.00
702;DHT22;334;48.808;9.222;2023-06-14T01:51:56;19.30;1.00
702;DHT22;334;48.808;9.222;2023-06-14T01:52:58;19.20;1.00
702;DHT22;334;48.808;9.222;2023-06-14T01:54:02;19.30;1.00
702;DHT22;334;48.808;9.222;2023-06-14T01:55:08;19.30;1.00
702;DHT22;334;48.808;9.222;2023-06-14T01:56:13;19.30;1.00
702;DHT22;334;48.808;9.222;2023-06-14T01:57:16;19.20;1.00
702;DHT22;334;48.808;9.222;2023-06-14T01:58:19;19.20;1.00
702;DHT22;334;48.808;9.222;2023-06-14T01:59:21;19.20;1.00
702;DHT22;334;48.808;9.222;2023-06-14T02:00:27;19.10;1.00
702;DHT22;334;48.808;9.222;2023-06-14T02:01:31;19.10;1.00
702;DHT22;334;48.808;9.222;2023-06-14T02:02:36;19.00;1.00
702;DHT22;334;48.808;9.222;2023-06-14T02:03:39;19.00;1.00
702;DHT22;334;48.808;9.222;2023-06-14T02:04:41;19.00;1.00
702;DHT22;334;48.808;9.222;2023-06-14T02:05:43;19.00;1.00
702;DHT22;334;48.808;9.222;2023-06-14T02:06:46;19.00;1.00
702;DHT22;334;48.808;9.222;2023-06-14T02:07:48;19.00;1.00
702;DHT22;334;48.808;9.222;2023-06-14T02:08:52;19.00;1.00
702;DHT22;334;48.808;9.222;2023-06-14T02:09:54;19.00;1.00
702;DHT22;334;48.808;9.222;2023-06-14T02:11:00;19.00;1.00
702;DHT22;334;48.808;9.222;2023-06-14T02:12:02;19.00;1.00
702;DHT22;334;48.808;9.222;2023-06-14T02:13:07;19.00;1.00
702;DHT22;334;48.808;9.222;2023-06-14T02:14:08;19.00;1.00
702;DHT22;334;48.808;9.222;2023-06-14T02:15:14;19.00;1.00
702;DHT22;334;48.808;9.222;2023-06-14T02:16:20;18.90;1.00
702;DHT22;334;48.808;9.222;2023-06-14T02:17:27;18.90;1.00
702;DHT22;334;48.808;9.222;2023-06-14T02:18:30;18.90;1.00
702;DHT22;334;48.808;9.222;2023-06-14T02:19:33;18.90;1.00
702;DHT22;334;48.808;9.222;2023-06-14T02:20:35;18.90;1.00
702;DHT22;334;48.808;9.222;2023-06-14T02:21:37;18.90;1.00
702;DHT22;334;48.808;9.222;2023-06-14T02:22:39;18.90;1.00
702;DHT22;334;48.808;9.222;2023-06-14T02:23:41;18.80;1.00
702;DHT22;334;48.808;9.222;2023-06-14T02:24:47;18.90;1.00
702;DHT22;334;48.808;9.222;2023-06-14T02:26:04;18.90;1.00
702;DHT22;334;48.808;9.222;2023-06-14T02:27:06;18.90;1.00
702;DHT22;334;48.808;9.222;2023-06-14T02:28:09;18.90;1.00
702;DHT22;334;48.808;9.222;2023-06-14T02:29:12;18.90;1.00
702;DHT22;334;48.808;9.222;2023-06-14T02:30:18;18.80;1.00
702;DHT22;334;48.808;9.222;2023-06-14T02:31:21;18.90;1.00
702;DHT22;334;48.808;9.222;2023-06-14T02:32:23;18.90;1.00
702;DHT22;334;48.808;9.222;2023-06-14T02:33:25;18.80;1.00
702;DHT22;334;48.808;9.222;2023-06-14T02:34:27;18.80;1.00
702;DHT22;334;48.808;9.222;2023-06-14T02:35:33;18.80;1.00
702;DHT22;334;48.808;9.222;2023-06-14T02:36:35;18.80;1.00
702;DHT22;334;48.808;9.222;2023-06-14T02:37:43;18.80;1.00
702;DHT22;334;48.808;9.222;2023-06-14T02:38:48;18.80;1.00
702;DHT22;334;48.808;9.222;2023-06-14T02:39:50;18.80;1.00
702;DHT22;334;48.808;9.222;2023-06-14T02:40:53;18.80;1.00
702;DHT22;334;48.808;9.222;2023-06-14T02:42:02;18.80;1.00
702;DHT22;334;48.808;9.222;2023-06-14T02:43:07;18.80;1.00
702;DHT22;334;48.808;9.222;2023-06-14T02:44:09;18.80;1.00
702;DHT22;334;48.808;9.222;2023-06-14T02:45:13;18.80;1.00
702;DHT22;334;48.808;9.222;2023-06-14T02:46:19;18.80;1.00
702;DHT22;334;48.808;9.222;2023-06-14T02:47:23;18.70;1.00
702;DHT22;334;48.808;9.222;2023-06-14T02:48:30;18.80;1.00
702;DHT22;334;48.808;9.222;2023-06-14T02:49:35;18.80;1.00
702;DHT22;334;48.808;9.222;2023-06-14T02:50:38;18.80;1.00
702;DHT22;334;48.808;9.222;2023-06-14T02:51:42;18.70;1.00
702;DHT22;334;48.808;9.222;2023-06-14T02:52:47;18.70;1.00
702;DHT22;334;48.808;9.222;2023-06-14T02:53:49;18.70;1.00
702;DHT22;334;48.808;9.222;2023-06-14T02:54:54;18.70;1.00
702;DHT22;334;48.808;9.222;2023-06-14T02:55:56;18.70;1.00
702;DHT22;334;48.808;9.222;2023-06-14T02:57:00;18.70;1.00
702;DHT22;334;48.808;9.222;2023-06-14T02:58:04;18.70;1.00
702;DHT22;334;48.808;9.222;2023-06-14T02:59:08;18.70;1.00
702;DHT22;334;48.808;9.222;2023-06-14T03:00:12;18.70;1.00
702;DHT22;334;48.808;9.222;2023-06-14T03:01:16;18.70;1.00
702;DHT22;334;48.808;9.222;2023-06-14T03:02:18;18.70;1.00
702;DHT22;334;48.808;9.222;2023-06-14T03:03:24;18.60;1.00
702;DHT22;334;48.808;9.222;2023-06-14T03:04:27;18.70;1.00
702;DHT22;334;48.808;9.222;2023-06-14T03:05:46;18.60;1.00
702;DHT22;334;48.808;9.222;2023-06-14T03:06:54;18.50;1.00
702;DHT22;334;48.808;9.222;2023-06-14T03:07:58;18.50;1.00
702;DHT22;334;48.808;9.222;2023-06-14T03:09:02;18.50;1.00
702;DHT22;334;48.808;9.222;2023-06-14T03:10:11;18.50;1.00
702;DHT22;334;48.808;9.222;2023-06-14T03:11:17;18.50;1.00
702;DHT22;334;48.808;9.222;2023-06-14T03:12:25;18.50;1.00
702;DHT22;334;48.808;9.222;2023-06-14T03:13:28;18.40;1.00
702;DHT22;334;48.808;9.222;2023-06-14T03:14:37;18.40;1.00
702;DHT22;334;48.808;9.222;2023-06-14T03:15:55;18.50;1.00
702;DHT22;334;48.808;9.222;2023-06-14T03:18:58;18.40;1.00
702;DHT22;334;48.808;9.222;2023-06-14T03:20:01;18.40;1.00
702;DHT22;334;48.808;9.222;2023-06-14T03:21:03;18.30;1.00
702;DHT22;334;48.808;9.222;2023-06-14T03:22:08;18.30;1.00
702;DHT22;334;48.808;9.222;2023-06-14T03:23:10;18.40;1.00
702;DHT22;334;48.808;9.222;2023-06-14T03:24:14;18.40;1.00
702;DHT22;334;48.808;9.222;2023-06-14T03:25:18;18.40;1.00
702;DHT22;334;48.808;9.222;2023-06-14T03:26:23;18.40;1.00
702;DHT22;334;48.808;9.222;2023-06-14T03:27:27;18.40;1.00
702;DHT22;334;48.808;9.222;2023-06-14T03:28:31;18.40;1.00
702;DHT22;334;48.808;9.222;2023-06-14T03:29:37;18.30;1.00
702;DHT22;334;48.808;9.222;2023-06-14T03:30:39;18.30;1.00
702;DHT22;334;48.808;9.222;2023-06-14T03:32:01;18.30;1.00
702;DHT22;334;48.808;9.222;2023-06-14T03:33:05;18.30;1.00
702;DHT22;334;48.808;9.222;2023-06-14T03:34:07;18.30;1.00
702;DHT22;334;48.808;9.222;2023-06-14T03:35:15;18.30;1.00
702;DHT22;334;48.808;9.222;2023-06-14T03:36:27;18.30;1.00
702;DHT22;334;48.808;9.222;2023-06-14T03:37:50;18.30;1.00
702;DHT22;334;48.808;9.222;2023-06-14T03:38:54;18.30;1.00
702;DHT22;334;48.808;9.222;2023-06-14T03:39:59;18.20;1.00
702;DHT22;334;48.808;9.222;2023-06-14T03:41:03;18.40;1.00
702;DHT22;334;48.808;9.222;2023-06-14T03:42:05;18.20;1.00
702;DHT22;334;48.808;9.222;2023-06-14T03:43:12;18.10;1.00
702;DHT22;334;48.808;9.222;2023-06-14T03:44:18;18.10;1.00
702;DHT22;334;48.808;9.222;2023-06-14T03:45:23;18.10;1.00
702;DHT22;334;48.808;9.222;2023-06-14T03:46:29;18.10;1.00
702;DHT22;334;48.808;9.222;2023-06-14T03:47:36;18.10;1.00
702;DHT22;334;48.808;9.222;2023-06-14T03:48:39;18.10;1.00
702;DHT22;334;48.808;9.222;2023-06-14T03:49:45;18.20;1.00
702;DHT22;334;48.808;9.222;2023-06-14T03:50:50;18.10;1.00
702;DHT22;334;48.808;9.222;2023-06-14T03:51:52;18.10;1.00
702;DHT22;334;48.808;9.222;2023-06-14T03:52:58;18.10;1.00
702;DHT22;334;48.808;9.222;2023-06-14T03:54:01;18.00;1.00
702;DHT22;334;48.808;9.222;2023-06-14T03:55:22;18.00;1.00
702;DHT22;334;48.808;9.222;2023-06-14T03:56:29;18.00;1.00
702;DHT22;334;48.808;9.222;2023-06-14T03:57:33;18.00;1.00
702;DHT22;334;48.808;9.222;2023-06-14T03:58:38;18.00;1.00
702;DHT22;334;48.808;9.222;2023-06-14T03:59:41;17.90;1.00
702;DHT22;334;48.808;9.222;2023-06-14T04:00:47;17.90;1.00
702;DHT22;334;48.808;9.222;2023-06-14T04:01:51;17.90;1.00
702;DHT22;334;48.808;9.222;2023-06-14T04:02:53;17.90;1.00
702;DHT22;334;48.808;9.222;2023-06-14T04:03:59;17.90;1.00
702;DHT22;334;48.808;9.222;2023-06-14T04:05:03;17.80;1.00
702;DHT22;334;48.808;9.222;2023-06-14T04:06:06;17.80;1.00
702;DHT22;334;48.808;9.222;2023-06-14T04:07:09;17.80;1.00
702;DHT22;334;48.808;9.222;2023-06-14T04:08:20;17.90;1.00
702;DHT22;334;48.808;9.222;2023-06-14T04:09:26;17.90;1.00
702;DHT22;334;48.808;9.222;2023-06-14T04:10:30;17.90;1.00
702;DHT22;334;48.808;9.222;2023-06-14T04:11:33;18.00;1.00
702;DHT22;334;48.808;9.222;2023-06-14T04:12:35;18.00;1.00
702;DHT22;334;48.808;9.222;2023-06-14T04:13:41;18.00;1.00
702;DHT22;334;48.808;9.222;2023-06-14T04:14:49;18.10;1.00
702;DHT22;334;48.808;9.222;2023-06-14T04:15:51;18.10;1.00
702;DHT22;334;48.808;9.222;2023-06-14T04:18:54;18.10;1.00
702;DHT22;334;48.808;9.222;2023-06-14T04:19:58;18.10;1.00
702;DHT22;334;48.808;9.222;2023-06-14T04:21:03;18.10;1.00
702;DHT22;334;48.808;9.222;2023-06-14T04:22:13;18.10;1.00
702;DHT22;334;48.808;9.222;2023-06-14T04:23:17;18.10;1.00
702;DHT22;334;48.808;9.222;2023-06-14T04:24:20;18.10;1.00
702;DHT22;334;48.808;9.222;2023-06-14T04:25:22;18.10;1.00
702;DHT22;334;48.808;9.222;2023-06-14T04:26:26;18.10;1.00
702;DHT22;334;48.808;9.222;2023-06-14T04:27:35;18.00;1.00
702;DHT22;334;48.808;9.222;2023-06-14T04:28:43;18.00;1.00
702;DHT22;334;48.808;9.222;2023-06-14T04:29:52;18.00;1.00
702;DHT22;334;48.808;9.222;2023-06-14T04:31:05;18.00;1.00
702;DHT22;334;48.808;9.222;2023-06-14T04:32:12;17.90;1.00
702;DHT22;334;48.808;9.222;2023-06-14T04:33:15;17.90;1.00
702;DHT22;334;48.808;9.222;2023-06-14T04:34:20;17.90;1.00
702;DHT22;334;48.808;9.222;2023-06-14T04:35:24;17.80;1.00
702;DHT22;334;48.808;9.222;2023-06-14T04:36:30;17.80;1.00
702;DHT22;334;48.808;9.222;2023-06-14T04:37:32;17.90;1.00
702;DHT22;334;48.808;9.222;2023-06-14T04:38:37;17.90;1.00
702;DHT22;334;48.808;9.222;2023-06-14T04:39:39;18.00;1.00
702;DHT22;334;48.808;9.222;2023-06-14T04:40:41;18.00;1.00
702;DHT22;334;48.808;9.222;2023-06-14T04:41:46;18.00;1.00
702;DHT22;334;48.808;9.222;2023-06-14T04:43:00;18.10;1.00
702;DHT22;334;48.808;9.222;2023-06-14T04:44:02;18.10;1.00
702;DHT22;334;48.808;9.222;2023-06-14T04:45:07;18.20;1.00
702;DHT22;334;48.808;9.222;2023-06-14T04:46:09;18.20;1.00
702;DHT22;334;48.808;9.222;2023-06-14T04:47:14;18.20;1.00
702;DHT22;334;48.808;9.222;2023-06-14T04:48:18;18.20;1.00
702;DHT22;334;48.808;9.222;2023-06-14T04:49:22;18.20;1.00
702;DHT22;334;48.808;9.222;2023-06-14T04:50:28;18.30;1.00
702;DHT22;334;48.808;9.222;2023-06-14T04:51:32;18.30;1.00
702;DHT22;334;48.808;9.222;2023-06-14T04:52:36;18.30;1.00
702;DHT22;334;48.808;9.222;2023-06-14T04:53:42;18.40;1.00
702;DHT22;334;48.808;9.222;2023-06-14T04:54:47;18.40;1.00
702;DHT22;334;48.808;9.222;2023-06-14T04:55:50;18.40;1.00
702;DHT22;334;48.808;9.222;2023-06-14T04:56:55;18.40;1.00
702;DHT22;334;48.808;9.222;2023-06-14T04:57:58;18.60;1.00
702;DHT22;334;48.808;9.222;2023-06-14T04:59:03;18.50;1.00
702;DHT22;334;48.808;9.222;2023-06-14T05:00:08;18.50;1.00
702;DHT22;334;48.808;9.222;2023-06-14T05:01:13;18.60;1.00
702;DHT22;334;48.808;9.222;2023-06-14T05:02:19;18.60;1.00
702;DHT22;334;48.808;9.222;2023-06-14T05:03:25;18.60;1.00
702;DHT22;334;48.808;9.222;2023-06-14T05:04:35;18.70;1.00
702;DHT22;334;48.808;9.222;2023-06-14T05:05:41;18.70;1.00
702;DHT22;334;48.808;9.222;2023-06-14T05:06:44;18.70;1.00
702;DHT22;334;48.808;9.222;2023-06-14T05:07:46;18.80;1.00
702;DHT22;334;48.808;9.222;2023-06-14T05:08:49;18.80;1.00
702;DHT22;334;48.808;9.222;2023-06-14T05:09:54;18.80;1.00
702;DHT22;334;48.808;9.222;2023-06-14T05:10:56;18.80;1.00
702;DHT22;334;48.808;9.222;2023-06-14T05:12:02;18.90;1.00
702;DHT22;334;48.808;9.222;2023-06-14T05:13:04;18.90;1.00
702;DHT22;334;48.808;9.222;2023-06-14T05:14:11;18.90;1.00
702;DHT22;334;48.808;9.222;2023-06-14T05:15:21;18.90;1.00
702;DHT22;334;48.808;9.222;2023-06-14T05:16:37;18.90;1.00
702;DHT22;334;48.808;9.222;2023-06-14T05:17:46;18.90;1.00
702;DHT22;334;48.808;9.222;2023-06-14T05:18:55;18.90;1.00
702;DHT22;334;48.808;9.222;2023-06-14T05:19:57;18.90;1.00
702;DHT22;334;48.808;9.222;2023-06-14T05:21:00;18.90;1.00
702;DHT22;334;48.808;9.222;2023-06-14T05:22:06;18.90;1.00
702;DHT22;334;48.808;9.222;2023-06-14T05:23:11;19.00;1.00
702;DHT22;334;48.808;9.222;2023-06-14T05:24:18;18.90;1.00
702;DHT22;334;48.808;9.222;2023-06-14T05:25:22;18.90;1.00
702;DHT22;334;48.808;9.222;2023-06-14T05:26:24;18.90;1.00
702;DHT22;334;48.808;9.222;2023-06-14T05:27:30;18.90;1.00
702;DHT22;334;48.808;9.222;2023-06-14T05:28:32;18.90;1.00
702;DHT22;334;48.808;9.222;2023-06-14T05:29:34;18.90;1.00
702;DHT22;334;48.808;9.222;2023-06-14T05:30:36;19.00;1.00
702;DHT22;334;48.808;9.222;2023-06-14T05:31:37;19.00;1.00
702;DHT22;334;48.808;9.222;2023-06-14T05:32:39;19.10;1.00
702;DHT22;334;48.808;9.222;2023-06-14T05:33:41;19.10;1.00
702;DHT22;334;48.808;9.222;2023-06-14T05:34:44;19.20;1.00
702;DHT22;334;48.808;9.222;2023-06-14T05:35:46;19.30;1.00
702;DHT22;334;48.808;9.222;2023-06-14T05:36:48;19.30;1.00
702;DHT22;334;48.808;9.222;2023-06-14T05:37:50;19.40;1.00
702;DHT22;334;48.808;9.222;2023-06-14T05:38:52;19.40;1.00
702;DHT22;334;48.808;9.222;2023-06-14T05:40:00;19.50;1.00
702;DHT22;334;48.808;9.222;2023-06-14T05:41:03;19.50;1.00
702;DHT22;334;48.808;9.222;2023-06-14T05:42:05;19.60;1.00
702;DHT22;334;48.808;9.222;2023-06-14T05:43:07;19.60;1.00
702;DHT22;334;48.808;9.222;2023-06-14T05:44:10;19.80;1.00
702;DHT22;334;48.808;9.222;2023-06-14T05:45:12;19.80;1.00
702;DHT22;334;48.808;9.222;2023-06-14T05:46:18;19.80;1.00
702;DHT22;334;48.808;9.222;2023-06-14T05:47:23;19.90;1.00
702;DHT22;334;48.808;9.222;2023-06-14T05:48:26;19.90;1.00
702;DHT22;334;48.808;9.222;2023-06-14T05:49:28;20.00;1.00
702;DHT22;334;48.808;9.222;2023-06-14T05:50:32;20.10;1.00
702;DHT22;334;48.808;9.222;2023-06-14T05:51:37;20.20;1.00
702;DHT22;334;48.808;9.222;2023-06-14T05:52:39;20.20;1.00
702;DHT22;334;48.808;9.222;2023-06-14T05:53:42;20.30;1.00
702;DHT22;334;48.808;9.222;2023-06-14T05:54:44;20.40;1.00
702;DHT22;334;48.808;9.222;2023-06-14T05:55:46;20.40;1.00
702;DHT22;334;48.808;9.222;2023-06-14T05:56:49;20.50;1.00
702;DHT22;334;48.808;9.222;2023-06-14T05:57:52;20.60;1.00
702;DHT22;334;48.808;9.222;2023-06-14T05:58:53;20.70;1.00
702;DHT22;334;48.808;9.222;2023-06-14T05:59:57;20.70;1.00
702;DHT22;334;48.808;9.222;2023-06-14T06:00:59;20.80;1.00
702;DHT22;334;48.808;9.222;2023-06-14T06:02:01;20.90;1.00
702;DHT22;334;48.808;9.222;2023-06-14T06:03:03;21.00;1.00
702;DHT22;334;48.808;9.222;2023-06-14T06:04:05;21.00;1.00
702;DHT22;334;48.808;9.222;2023-06-14T06:05:08;21.20;1.00
702;DHT22;334;48.808;9.222;2023-06-14T06:06:10;21.20;1.00
702;DHT22;334;48.808;9.222;2023-06-14T06:07:12;21.30;1.00
702;DHT22;334;48.808;9.222;2023-06-14T06:08:14;21.30;1.00
702;DHT22;334;48.808;9.222;2023-06-14T06:09:21;21.40;1.00
702;DHT22;334;48.808;9.222;2023-06-14T06:10:23;21.50;1.00
702;DHT22;334;48.808;9.222;2023-06-14T06:11:25;21.50;1.00
702;DHT22;334;48.808;9.222;2023-06-14T06:12:42;21.60;1.00
702;DHT22;334;48.808;9.222;2023-06-14T06:13:44;21.70;1.00
702;DHT22;334;48.808;9.222;2023-06-14T06:14:46;21.80;1.00
702;DHT22;334;48.808;9.222;2023-06-14T06:15:49;21.80;1.00
702;DHT22;334;48.808;9.222;2023-06-14T06:16:51;21.90;1.00
702;DHT22;334;48.808;9.222;2023-06-14T06:17:54;22.00;1.00
702;DHT22;334;48.808;9.222;2023-06-14T06:18:57;22.10;1.00
702;DHT22;334;48.808;9.222;2023-06-14T06:20:00;22.20;1.00
702;DHT22;334;48.808;9.222;2023-06-14T06:21:03;22.20;1.00
702;DHT22;334;48.808;9.222;2023-06-14T06:22:06;22.30;1.00
702;DHT22;334;48.808;9.222;2023-06-14T06:23:08;22.30;1.00
702;DHT22;334;48.808;9.222;2023-06-14T06:24:11;22.40;1.00
702;DHT22;334;48.808;9.222;2023-06-14T06:25:13;22.50;1.00
702;DHT22;334;48.808;9.222;2023-06-14T06:26:17;22.60;1.00
702;DHT22;334;48.808;9.222;2023-06-14T06:27:20;22.70;1.00
702;DHT22;334;48.808;9.222;2023-06-14T06:28:22;22.80;1.00
702;DHT22;334;48.808;9.222;2023-06-14T06:29:26;22.80;1.00
702;DHT22;334;48.808;9.222;2023-06-14T06:30:28;22.80;1.00
702;DHT22;334;48.808;9.222;2023-06-14T06:31:30;22.90;1.00
702;DHT22;334;48.808;9.222;2023-06-14T06:32:33;22.90;1.00
702;DHT22;334;48.808;9.222;2023-06-14T06:33:35;23.00;1.00
702;DHT22;334;48.808;9.222;2023-06-14T06:34:38;23.00;1.00
702;DHT22;334;48.808;9.222;2023-06-14T06:35:40;23.10;1.00
702;DHT22;334;48.808;9.222;2023-06-14T06:36:42;23.10;1.00
702;DHT22;334;48.808;9.222;2023-06-14T06:37:44;23.20;1.00
702;DHT22;334;48.808;9.222;2023-06-14T06:38:47;23.20;1.00
702;DHT22;334;48.808;9.222;2023-06-14T06:39:51;23.20;1.00
702;DHT22;334;48.808;9.222;2023-06-14T06:40:53;23.30;1.00
702;DHT22;334;48.808;9.222;2023-06-14T06:41:56;23.30;1.00
702;DHT22;334;48.808;9.222;2023-06-14T06:42:58;23.30;1.00
702;DHT22;334;48.808;9.222;2023-06-14T06:43:59;23.40;1.00
702;DHT22;334;48.808;9.222;2023-06-14T06:45:02;23.40;1.00
702;DHT22;334;48.808;9.222;2023-06-14T06:46:04;23.40;1.00
702;DHT22;334;48.808;9.222;2023-06-14T06:47:06;23.40;1.00
702;DHT22;334;48.808;9.222;2023-06-14T06:48:08;23.40;1.00
702;DHT22;334;48.808;9.222;2023-06-14T06:49:12;23.50;1.00
702;DHT22;334;48.808;9.222;2023-06-14T06:50:14;23.60;1.00
702;DHT22;334;48.808;9.222;2023-06-14T06:51:17;23.50;1.00
702;DHT22;334;48.808;9.222;2023-06-14T06:52:19;23.50;1.00
702;DHT22;334;48.808;9.222;2023-06-14T06:53:21;23.40;1.00
702;DHT22;334;48.808;9.222;2023-06-14T06:54:40;23.50;1.00
702;DHT22;334;48.808;9.222;2023-06-14T06:55:42;23.50;1.00
702;DHT22;334;48.808;9.222;2023-06-14T06:56:44;23.50;1.00
702;DHT22;334;48.808;9.222;2023-06-14T06:57:46;23.50;1.00
702;DHT22;334;48.808;9.222;2023-06-14T06:58:48;23.40;1.00
702;DHT22;334;48.808;9.222;2023-06-14T06:59:51;23.40;1.00
702;DHT22;334;48.808;9.222;2023-06-14T07:00:53;23.40;1.00
702;DHT22;334;48.808;9.222;2023-06-14T07:01:55;23.40;1.00
702;DHT22;334;48.808;9.222;2023-06-14T07:02:57;23.30;1.00
702;DHT22;334;48.808;9.222;2023-06-14T07:03:59;23.30;1.00
702;DHT22;334;48.808;9.222;2023-06-14T07:05:03;23.40;1.00
702;DHT22;334;48.808;9.222;2023-06-14T07:06:06;23.40;1.00
702;DHT22;334;48.808;9.222;2023-06-14T07:07:08;23.30;1.00
702;DHT22;334;48.808;9.222;2023-06-14T07:08:13;23.40;1.00
702;DHT22;334;48.808;9.222;2023-06-14T07:09:15;23.50;1.00
702;DHT22;334;48.808;9.222;2023-06-14T07:10:17;23.40;1.00
702;DHT22;334;48.808;9.222;2023-06-14T07:11:20;23.40;1.00
702;DHT22;334;48.808;9.222;2023-06-14T07:12:22;23.40;1.00
702;DHT22;334;48.808;9.222;2023-06-14T07:13:24;23.40;1.00
702;DHT22;334;48.808;9.222;2023-06-14T07:14:28;23.30;1.00
702;DHT22;334;48.808;9.222;2023-06-14T07:15:31;23.30;1.00
702;DHT22;334;48.808;9.222;2023-06-14T07:16:32;23.30;1.00
702;DHT22;334;48.808;9.222;2023-06-14T07:17:35;23.30;1.00
702;DHT22;334;48.808;9.222;2023-06-14T07:18:37;23.40;1.00
702;DHT22;334;48.808;9.222;2023-06-14T07:19:39;23.30;1.00
702;DHT22;334;48.808;9.222;2023-06-14T07:20:41;23.40;1.00
702;DHT22;334;48.808;9.222;2023-06-14T07:21:44;23.40;1.00
702;DHT22;334;48.808;9.222;2023-06-14T07:22:46;23.40;1.00
702;DHT22;334;48.808;9.222;2023-06-14T07:23:48;23.40;1.00
702;DHT22;334;48.808;9.222;2023-06-14T07:24:50;23.40;1.00
702;DHT22;334;48.808;9.222;2023-06-14T07:25:54;23.50;1.00
702;DHT22;334;48.808;9.222;2023-06-14T07:26:56;23.50;1.00
702;DHT22;334;48.808;9.222;2023-06-14T07:27:58;23.40;1.00
702;DHT22;334;48.808;9.222;2023-06-14T07:29:00;23.40;1.00